Time;durP1;ratioP1;P1;durP2;ratioP2;P2;SDS_P1;SDS_P2;PMS_P1;PMS_P2;Temp;Humidity;BMP_temperature;BMP_pressure;BME280_temperature;BME280_humidity;BME280_pressure;Samples;Min_cycle;Max_cycle;Signal;HPM_P1;HPM_P2
2022/03/23 00:01:11;;;;;;;21.88;11.00;;;6.30;44.60;;;;;;5094545;28;20054;-78
2022/03/23 00:03:37;;;;;;;17.33;10.63;;;6.30;44.70;;;;;;5096716;28;20023;-79
2022/03/23 00:06:03;;;;;;;18.85;10.45;;;6.30;44.40;;;;;;5097781;28;20107;-75
2022/03/23 00:08:29;;;;;;;16.08;9.73;;;6.30;44.40;;;;;;5105005;28;20020;-72
2022/03/23 00:10:55;;;;;;;13.98;9.65;;;6.20;44.40;;;;;;5117913;28;20059;-73
2022/03/23 00:13:20;;;;;;;20.30;10.30;;;6.30;44.30;;;;;;5097520;28;20035;-75
2022/03/23 00:15:47;;;;;;;20.42;9.85;;;6.30;44.30;;;;;;5096470;28;20047;-77
2022/03/23 00:18:12;;;;;;;18.02;10.13;;;6.30;44.30;;;;;;5096797;28;20404;-77
2022/03/23 00:20:42;;;;;;;18.50;9.40;;;6.30;44.30;;;;;;5096946;28;20024;-70
2022/03/23 00:23:09;;;;;;;15.90;8.43;;;6.30;44.60;;;;;;5096734;28;20028;-70
2022/03/23 00:25:36;;;;;;;14.40;8.35;;;6.30;44.70;;;;;;5096360;28;20120;-69
2022/03/23 00:28:03;;;;;;;18.40;10.18;;;6.20;44.60;;;;;;5096364;28;20050;-69
2022/03/23 00:30:29;;;;;;;13.90;8.65;;;6.20;44.80;;;;;;5096345;28;20399;-69
2022/03/23 00:32:55;;;;;;;15.05;9.32;;;6.10;44.80;;;;;;5096598;28;20051;-69
2022/03/23 00:35:22;;;;;;;14.95;8.90;;;6.10;44.90;;;;;;5096442;28;20064;-70
2022/03/23 00:37:48;;;;;;;14.25;8.77;;;6.10;44.90;;;;;;5096493;28;20070;-70
2022/03/23 00:40:14;;;;;;;14.82;9.05;;;6.10;44.70;;;;;;5096085;28;20051;-69
2022/03/23 00:42:40;;;;;;;13.57;9.07;;;6.10;44.50;;;;;;5095995;28;20039;-69
2022/03/23 00:45:07;;;;;;;15.75;8.98;;;6.00;44.20;;;;;;5096077;28;20514;-69
2022/03/23 00:47:33;;;;;;;17.92;9.27;;;5.90;44.60;;;;;;5095983;28;20024;-70
2022/03/23 00:49:58;;;;;;;16.08;9.25;;;5.90;44.90;;;;;;5095804;28;20365;-69
2022/03/23 00:52:24;;;;;;;14.88;10.27;;;5.90;44.90;;;;;;5096395;28;20024;-69
2022/03/23 00:54:50;;;;;;;15.48;9.57;;;5.70;44.70;;;;;;5095876;28;20020;-70
2022/03/23 00:57:15;;;;;;;15.90;8.73;;;5.50;45.00;;;;;;5095946;28;20464;-73
2022/03/23 00:59:41;;;;;;;17.25;9.85;;;5.40;45.50;;;;;;5095779;28;20028;-69
2022/03/23 01:02:07;;;;;;;17.98;9.23;;;5.40;46.20;;;;;;5095937;28;20529;-69
2022/03/23 01:04:33;;;;;;;13.82;8.65;;;5.30;46.40;;;;;;5095557;28;20028;-69
2022/03/23 01:06:58;;;;;;;18.05;9.10;;;5.30;46.50;;;;;;5095820;28;20141;-71
2022/03/23 01:09:25;;;;;;;16.35;8.63;;;5.40;46.60;;;;;;5095634;28;20115;-70
2022/03/23 01:11:51;;;;;;;15.25;9.27;;;5.40;46.60;;;;;;5095531;28;20028;-70
2022/03/23 01:14:18;;;;;;;17.73;10.57;;;5.40;46.70;;;;;;5095664;28;20051;-69
2022/03/23 01:16:45;;;;;;;13.13;8.75;;;5.40;46.90;;;;;;5095404;28;20035;-70
2022/03/23 01:19:11;;;;;;;19.23;9.80;;;5.40;47.00;;;;;;5095559;28;20031;-70
2022/03/23 01:21:38;;;;;;;14.45;9.18;;;5.40;47.20;;;;;;5095516;28;20046;-69
2022/03/23 01:24:06;;;;;;;14.68;8.43;;;5.40;47.20;;;;;;5095181;28;20103;-70
2022/03/23 01:26:32;;;;;;;12.00;7.95;;;5.40;47.20;;;;;;5095359;28;20047;-69
2022/03/23 01:28:57;;;;;;;14.52;8.70;;;5.40;47.30;;;;;;5095455;28;20063;-73
2022/03/23 01:31:23;;;;;;;15.25;8.30;;;5.40;47.60;;;;;;5095254;28;20074;-69
2022/03/23 01:33:48;;;;;;;11.35;7.70;;;5.30;47.80;;;;;;5095327;28;20276;-70
2022/03/23 01:36:14;;;;;;;17.58;7.93;;;5.30;47.70;;;;;;5095154;28;20078;-70
2022/03/23 01:38:40;;;;;;;13.35;7.88;;;5.30;47.50;;;;;;5094119;28;20036;-70
2022/03/23 01:41:05;;;;;;;16.50;7.97;;;5.30;47.50;;;;;;5095207;28;20024;-75
2022/03/23 01:43:33;;;;;;;14.02;7.95;;;5.30;47.60;;;;;;5094991;28;20028;-69
2022/03/23 01:45:59;;;;;;;12.73;7.88;;;5.20;47.70;;;;;;5094846;28;20016;-70
2022/03/23 01:48:25;;;;;;;14.40;8.85;;;5.20;47.60;;;;;;5094803;28;20110;-69
2022/03/23 01:50:50;;;;;;;17.08;9.48;;;5.30;47.30;;;;;;5095014;28;20064;-69
2022/03/23 01:53:16;;;;;;;16.63;9.20;;;5.30;47.30;;;;;;5095129;28;20016;-70
2022/03/23 01:55:42;;;;;;;13.95;8.75;;;5.20;47.10;;;;;;5094502;28;20031;-71
2022/03/23 01:58:07;;;;;;;14.10;8.25;;;5.30;47.00;;;;;;5094708;28;20031;-69
2022/03/23 02:00:34;;;;;;;17.85;9.38;;;5.20;46.70;;;;;;5094655;28;20457;-69
2022/03/23 02:02:59;;;;;;;14.00;8.25;;;5.20;46.60;;;;;;5094800;28;20514;-69
2022/03/23 02:05:26;;;;;;;20.27;10.05;;;5.20;46.60;;;;;;5094625;28;20028;-78
2022/03/23 02:07:52;;;;;;;12.80;8.55;;;5.20;46.50;;;;;;5094744;28;20028;-78
2022/03/23 02:10:17;;;;;;;16.05;8.05;;;5.10;46.60;;;;;;5094688;28;20121;-78
2022/03/23 02:12:43;;;;;;;14.40;8.63;;;5.10;46.60;;;;;;5094551;28;20020;-78
2022/03/23 02:15:12;;;;;;;15.57;8.73;;;5.10;46.70;;;;;;5094541;28;20024;-77
2022/03/23 02:17:38;;;;;;;12.77;7.80;;;5.20;46.70;;;;;;5094359;28;20043;-78
2022/03/23 02:20:06;;;;;;;13.13;8.15;;;5.10;46.80;;;;;;5094353;28;20032;-71
2022/03/23 02:22:31;;;;;;;13.95;8.82;;;5.20;46.90;;;;;;5094353;28;20028;-73
2022/03/23 02:24:57;;;;;;;17.75;8.68;;;5.20;46.90;;;;;;5098457;28;20024;-68
2022/03/23 02:27:23;;;;;;;14.75;8.60;;;5.10;46.70;;;;;;5094457;28;20028;-69
2022/03/23 02:29:49;;;;;;;13.35;8.60;;;5.10;46.80;;;;;;5094086;28;20537;-69
2022/03/23 02:32:14;;;;;;;15.05;8.70;;;5.20;46.70;;;;;;5094234;28;20020;-71
2022/03/23 02:34:40;;;;;;;16.15;9.13;;;5.10;46.80;;;;;;5094248;28;20035;-69
2022/03/23 02:37:06;;;;;;;13.02;8.05;;;5.10;46.80;;;;;;5094359;28;20016;-70
2022/03/23 02:39:32;;;;;;;13.55;8.13;;;5.00;46.50;;;;;;5094075;28;20035;-71
2022/03/23 02:41:57;;;;;;;14.48;8.07;;;5.00;46.50;;;;;;5094295;28;20028;-71
2022/03/23 02:44:26;;;;;;;12.40;6.97;;;5.10;46.90;;;;;;5094096;28;20016;-69
2022/03/23 02:46:52;;;;;;;13.50;7.47;;;5.10;47.30;;;;;;5093796;28;20028;-69
2022/03/23 02:49:20;;;;;;;14.55;7.60;;;5.10;47.60;;;;;;5093581;28;20040;-69
2022/03/23 02:51:46;;;;;;;12.40;8.38;;;5.00;47.80;;;;;;5093742;28;20046;-71
2022/03/23 03:02:51;;;;;;;14.70;8.70;;;4.70;49.80;;;;;;5093901;28;20050;-78
2022/03/23 03:05:17;;;;;;;15.10;8.30;;;4.60;49.60;;;;;;5093813;28;20494;-79
2022/03/23 03:10:27;;;;;;;14.93;8.40;;;4.60;49.00;;;;;;5093593;28;20059;-78
2022/03/23 03:12:53;;;;;;;12.88;8.30;;;4.70;49.20;;;;;;5093433;28;20464;-77
2022/03/23 03:15:20;;;;;;;14.60;8.95;;;4.70;49.00;;;;;;5093469;28;20028;-78
2022/03/23 03:17:49;;;;;;;15.45;8.00;;;4.70;49.00;;;;;;5093307;28;20112;-79
2022/03/23 03:20:15;;;;;;;10.98;7.15;;;4.70;49.60;;;;;;5093446;28;20027;-77
2022/03/23 03:22:43;;;;;;;14.38;8.02;;;4.70;48.70;;;;;;5093340;28;20043;-78
2022/03/23 03:25:12;;;;;;;12.75;7.82;;;4.70;48.70;;;;;;5093251;28;20464;-77
2022/03/23 03:27:40;;;;;;;11.68;7.72;;;4.80;48.60;;;;;;5093200;28;20465;-78
2022/03/23 03:30:08;;;;;;;12.32;8.05;;;4.70;48.50;;;;;;5093121;28;20028;-78
2022/03/23 03:32:34;;;;;;;11.98;7.70;;;4.70;48.90;;;;;;5093061;28;20081;-78
2022/03/23 03:35:00;;;;;;;19.45;9.02;;;4.70;49.00;;;;;;5092407;28;20036;-78
2022/03/23 03:37:26;;;;;;;18.55;8.95;;;4.70;48.70;;;;;;5092578;28;20016;-78
2022/03/23 03:39:51;;;;;;;14.98;8.50;;;4.50;48.40;;;;;;5093126;28;20525;-77
2022/03/23 03:42:18;;;;;;;12.73;8.57;;;4.50;48.10;;;;;;5092827;28;20384;-78
2022/03/23 03:44:44;;;;;;;14.18;8.18;;;4.50;48.10;;;;;;5092915;28;20380;-78
2022/03/23 03:47:10;;;;;;;12.38;8.27;;;4.60;48.00;;;;;;5092975;28;20055;-79
2022/03/23 03:49:37;;;;;;;13.43;8.77;;;4.50;48.40;;;;;;5092850;28;20476;-77
2022/03/23 03:52:03;;;;;;;12.95;7.75;;;4.60;48.50;;;;;;5092605;28;20032;-77
2022/03/23 03:54:28;;;;;;;19.63;8.35;;;4.50;48.30;;;;;;5092493;28;20027;-77
2022/03/23 03:56:54;;;;;;;13.57;8.13;;;4.60;48.20;;;;;;5092694;28;20162;-78
2022/03/23 03:59:20;;;;;;;14.80;7.95;;;4.60;48.20;;;;;;5092820;28;20028;-76
2022/03/23 04:01:46;;;;;;;15.93;7.85;;;4.60;48.40;;;;;;5092676;28;20335;-77
2022/03/23 04:04:11;;;;;;;15.07;8.02;;;4.60;48.60;;;;;;5092853;28;20395;-77
2022/03/23 04:06:37;;;;;;;14.48;9.18;;;4.60;48.90;;;;;;5092701;28;20472;-78
2022/03/23 04:09:02;;;;;;;18.50;9.25;;;4.60;49.40;;;;;;5092651;28;20500;-80
2022/03/23 04:11:29;;;;;;;15.18;9.60;;;4.50;49.90;;;;;;5092378;28;20079;-74
2022/03/23 04:13:55;;;;;;;14.40;9.68;;;4.40;50.40;;;;;;5092821;28;20020;-75
2022/03/23 04:16:20;;;;;;;16.58;9.30;;;4.30;50.80;;;;;;5092626;28;20227;-78
2022/03/23 04:18:46;;;;;;;18.65;9.75;;;4.20;51.00;;;;;;5092579;28;20020;-79
2022/03/23 04:21:12;;;;;;;14.50;9.73;;;4.20;51.20;;;;;;5092602;28;20383;-74
2022/03/23 04:23:38;;;;;;;20.00;10.05;;;4.20;51.30;;;;;;5092737;28;20020;-71
2022/03/23 04:26:03;;;;;;;15.15;9.70;;;4.20;51.60;;;;;;5092574;28;20031;-70
2022/03/23 04:28:29;;;;;;;21.48;11.32;;;4.20;51.90;;;;;;5091077;28;20537;-69
2022/03/23 04:30:55;;;;;;;20.55;10.98;;;4.20;52.20;;;;;;5092427;28;20032;-72
2022/03/23 04:33:20;;;;;;;18.95;11.32;;;4.10;52.20;;;;;;5092365;28;20066;-72
2022/03/23 04:35:46;;;;;;;18.17;10.18;;;4.10;52.20;;;;;;5092370;28;20035;-71
2022/03/23 04:38:11;;;;;;;17.88;10.23;;;4.10;52.40;;;;;;5092189;28;20031;-76
2022/03/23 04:40:37;;;;;;;18.27;10.13;;;4.00;52.50;;;;;;5092040;28;20047;-72
2022/03/23 04:43:02;;;;;;;14.60;8.95;;;4.00;52.40;;;;;;5092072;28;20085;-72
2022/03/23 04:45:28;;;;;;;15.25;9.57;;;4.00;52.50;;;;;;5091681;28;20068;-71
2022/03/23 04:47:53;;;;;;;16.17;9.15;;;4.00;52.50;;;;;;5094719;28;20024;-70
2022/03/23 04:50:19;;;;;;;16.77;9.23;;;4.00;52.40;;;;;;5094636;28;20040;-77
2022/03/23 04:52:46;;;;;;;14.48;8.65;;;4.00;52.20;;;;;;5095861;28;20065;-70
2022/03/23 04:55:13;;;;;;;17.08;8.85;;;4.00;52.00;;;;;;5095917;28;20361;-69
2022/03/23 04:57:39;;;;;;;16.02;10.00;;;3.90;52.00;;;;;;5095787;28;20048;-71
2022/03/23 05:00:10;;;;;;;14.38;8.88;;;3.90;52.50;;;;;;5095788;28;20060;-69
2022/03/23 05:02:40;;;;;;;13.20;8.50;;;3.90;52.50;;;;;;5095448;28;20568;-70
2022/03/23 05:05:07;;;;;;;12.88;8.27;;;3.90;53.20;;;;;;5095591;28;20035;-69
2022/03/23 05:07:33;;;;;;;13.18;8.48;;;3.90;52.40;;;;;;5095342;28;20085;-70
2022/03/23 05:09:58;;;;;;;15.90;8.70;;;3.80;52.50;;;;;;5095616;28;20028;-70
2022/03/23 05:12:24;;;;;;;14.35;8.43;;;3.90;52.60;;;;;;5095572;28;20476;-70
2022/03/23 05:14:50;;;;;;;12.90;8.35;;;3.90;52.80;;;;;;5095706;28;20056;-70
2022/03/23 05:17:15;;;;;;;13.15;8.85;;;3.80;52.70;;;;;;5095294;28;20435;-69
2022/03/23 05:19:41;;;;;;;16.63;8.50;;;3.80;52.60;;;;;;5095515;28;20034;-70
2022/03/23 05:22:06;;;;;;;16.15;8.65;;;3.80;52.70;;;;;;5095390;28;20510;-69
2022/03/23 05:24:32;;;;;;;13.18;8.60;;;3.80;52.40;;;;;;5095212;28;20024;-69
2022/03/23 05:26:58;;;;;;;13.95;8.98;;;3.80;52.40;;;;;;5095459;28;20068;-70
2022/03/23 05:29:23;;;;;;;15.50;8.60;;;3.80;52.40;;;;;;5095098;28;20058;-69
2022/03/23 05:31:49;;;;;;;14.63;8.50;;;3.80;52.60;;;;;;5095162;28;20024;-69
2022/03/23 05:34:15;;;;;;;18.02;9.70;;;3.80;52.80;;;;;;5095359;28;20038;-69
2022/03/23 05:36:40;;;;;;;14.93;9.18;;;3.80;53.60;;;;;;5094979;28;20020;-70
2022/03/23 05:39:06;;;;;;;13.02;8.70;;;3.80;52.90;;;;;;5095339;28;20107;-70
2022/03/23 05:41:32;;;;;;;17.92;9.73;;;3.80;52.90;;;;;;5094835;28;20107;-69
2022/03/23 05:43:57;;;;;;;17.05;9.15;;;3.80;53.00;;;;;;5095211;28;20063;-69
2022/03/23 05:46:23;;;;;;;13.00;8.73;;;3.80;53.00;;;;;;5095227;28;20387;-70
2022/03/23 05:48:48;;;;;;;13.68;8.80;;;3.90;52.80;;;;;;5094850;28;20032;-70
2022/03/23 05:51:14;;;;;;;14.95;9.10;;;3.90;52.50;;;;;;5094934;28;20093;-70
2022/03/23 05:53:40;;;;;;;14.73;8.45;;;4.00;52.20;;;;;;5094689;28;20476;-70
2022/03/23 05:56:07;;;;;;;12.43;7.78;;;4.00;52.10;;;;;;5094741;28;20031;-70
2022/03/23 05:58:34;;;;;;;15.82;9.80;;;4.10;51.90;;;;;;5093379;28;20026;-70
2022/03/23 06:01:00;;;;;;;15.02;9.52;;;4.10;51.90;;;;;;5094579;28;20452;-69
2022/03/23 06:03:25;;;;;;;16.92;9.52;;;4.20;52.20;;;;;;5094517;28;20023;-70
2022/03/23 06:05:51;;;;;;;18.05;10.13;;;4.30;52.20;;;;;;5094793;28;20023;-70
2022/03/23 06:08:16;;;;;;;23.98;11.07;;;4.40;51.90;;;;;;5094593;28;20024;-75
2022/03/23 06:10:42;;;;;;;21.25;11.30;;;4.50;51.70;;;;;;5094106;28;20035;-73
2022/03/23 06:13:08;;;;;;;20.35;10.80;;;4.60;51.40;;;;;;5094379;28;20025;-69
2022/03/23 06:15:33;;;;;;;20.63;11.18;;;4.70;51.20;;;;;;5094027;28;20047;-76
2022/03/23 06:17:59;;;;;;;25.83;12.95;;;4.70;51.00;;;;;;5093951;28;20055;-70
2022/03/23 06:20:24;;;;;;;22.58;10.55;;;4.70;50.40;;;;;;5093688;28;20485;-72
2022/03/23 06:22:50;;;;;;;19.95;10.90;;;4.80;50.40;;;;;;5093610;28;20411;-70
2022/03/23 06:25:17;;;;;;;32.03;13.23;;;4.80;49.90;;;;;;5093819;28;20022;-72
2022/03/23 06:27:42;;;;;;;22.35;11.18;;;4.90;49.70;;;;;;5093334;28;20024;-70
2022/03/23 06:30:08;;;;;;;23.13;12.57;;;4.90;49.60;;;;;;5091472;28;20036;-73
2022/03/23 06:32:34;;;;;;;24.83;11.52;;;5.00;49.40;;;;;;5093695;28;20024;-74
2022/03/23 06:35:00;;;;;;;17.92;10.38;;;5.10;49.20;;;;;;5093720;28;20069;-78
2022/03/23 06:37:27;;;;;;;19.27;10.63;;;5.20;49.00;;;;;;5093579;28;20024;-72
2022/03/23 06:39:52;;;;;;;17.52;10.30;;;5.40;48.90;;;;;;5093746;28;20110;-74
2022/03/23 06:42:18;;;;;;;16.30;9.75;;;5.60;49.00;;;;;;5093679;28;20107;-71
2022/03/23 06:44:44;;;;;;;12.13;8.00;;;5.70;49.30;;;;;;5093582;28;20411;-70
2022/03/23 06:47:10;;;;;;;24.23;9.52;;;5.80;48.70;;;;;;5093780;28;20031;-70
2022/03/23 06:49:35;;;;;;;22.65;10.60;;;5.90;48.90;;;;;;5093524;28;20039;-70
2022/03/23 06:52:01;;;;;;;22.23;10.65;;;6.10;48.20;;;;;;5093549;28;20055;-78
2022/03/23 06:54:26;;;;;;;16.52;9.98;;;6.20;47.20;;;;;;5093428;28;20384;-78
2022/03/23 06:56:52;;;;;;;22.80;10.10;;;6.30;46.90;;;;;;5093449;28;20027;-70
2022/03/23 06:59:19;;;;;;;19.77;9.20;;;6.40;46.90;;;;;;5093679;28;20035;-70
2022/03/23 07:01:44;;;;;;;16.38;9.60;;;6.50;46.70;;;;;;5093264;28;20016;-72
2022/03/23 07:04:10;;;;;;;24.60;11.20;;;6.60;46.20;;;;;;5093526;28;20106;-71
2022/03/23 07:06:36;;;;;;;20.35;11.05;;;6.80;46.00;;;;;;5093179;28;20472;-70
2022/03/23 07:11:45;;;;;;;18.80;11.00;;;7.00;45.80;;;;;;5093306;28;20081;-70
2022/03/23 07:14:11;;;;;;;17.88;10.07;;;7.10;45.20;;;;;;5093143;28;20023;-74
2022/03/23 07:16:36;;;;;;;14.50;9.00;;;7.20;45.00;;;;;;5093038;28;20040;-70
2022/03/23 07:19:02;;;;;;;22.02;10.02;;;7.40;44.90;;;;;;5093244;28;20028;-73
2022/03/23 07:21:28;;;;;;;13.95;9.00;;;7.50;45.10;;;;;;5093056;28;20110;-69
2022/03/23 07:23:53;;;;;;;15.80;8.68;;;7.70;44.50;;;;;;5093022;28;20157;-69
2022/03/23 07:26:19;;;;;;;20.20;9.90;;;7.80;44.80;;;;;;5093237;28;20024;-69
2022/03/23 07:28:44;;;;;;;14.35;8.65;;;8.00;44.10;;;;;;5092932;28;20024;-69
2022/03/23 07:31:10;;;;;;;19.65;11.98;;;8.10;43.90;;;;;;5092895;28;20028;-69
2022/03/23 07:33:35;;;;;;;23.38;14.77;;;8.30;44.20;;;;;;5092876;28;20099;-70
2022/03/23 07:36:02;;;;;;;21.05;13.55;;;8.40;44.40;;;;;;5092870;28;20348;-70
2022/03/23 07:38:27;;;;;;;19.52;11.93;;;8.60;44.10;;;;;;5093093;28;20020;-70
2022/03/23 07:40:53;;;;;;;19.88;12.13;;;8.60;43.80;;;;;;5093221;28;20444;-71
2022/03/23 07:43:19;;;;;;;25.95;14.15;;;8.70;43.60;;;;;;5093334;28;20097;-70
2022/03/23 07:45:46;;;;;;;20.52;13.25;;;8.80;43.70;;;;;;5093260;28;20024;-72
2022/03/23 07:48:11;;;;;;;19.48;11.90;;;8.80;44.10;;;;;;5093139;28;20058;-74
2022/03/23 07:50:37;;;;;;;19.98;11.77;;;8.90;45.00;;;;;;5093137;28;20036;-70
2022/03/23 07:53:02;;;;;;;21.23;12.15;;;9.10;45.80;;;;;;5093039;28;20028;-72
2022/03/23 07:55:28;;;;;;;44.97;12.43;;;9.30;45.90;;;;;;5092862;28;20038;-76
2022/03/23 07:57:53;;;;;;;23.42;11.50;;;9.70;52.90;;;;;;5093347;28;20025;-75
2022/03/23 08:00:20;;;;;;;20.48;11.00;;;10.30;53.20;;;;;;5093108;28;20045;-77
2022/03/23 08:02:46;;;;;;;61.05;19.15;;;10.60;49.00;;;;;;5091605;28;20072;-72
2022/03/23 08:05:11;;;;;;;23.65;11.55;;;11.10;47.30;;;;;;5093037;28;20032;-72
2022/03/23 08:07:37;;;;;;;23.67;11.13;;;11.40;43.80;;;;;;5092689;28;20024;-73
2022/03/23 08:10:03;;;;;;;21.10;11.13;;;11.70;43.20;;;;;;5092802;28;20494;-71
2022/03/23 08:12:29;;;;;;;24.52;11.23;;;11.90;41.40;;;;;;5092591;28;20021;-72
2022/03/23 08:14:54;;;;;;;17.73;10.35;;;11.80;38.50;;;;;;5092659;28;20028;-71
2022/03/23 08:17:20;;;;;;;13.68;9.63;;;11.70;38.10;;;;;;5092435;28;20040;-71
2022/03/23 08:20:32;;;;;;;20.63;10.98;;;11.70;37.90;;;;;;5090687;28;20054;-75
2022/03/23 08:22:31;;;;;;;16.63;10.63;;;11.60;37.00;;;;;;5094950;28;20108;-75
2022/03/23 08:24:57;;;;;;;16.38;9.60;;;11.50;37.00;;;;;;5096736;28;20028;-75
2022/03/23 08:27:22;;;;;;;20.08;10.90;;;11.60;37.60;;;;;;5096570;28;20020;-71
2022/03/23 08:29:48;;;;;;;14.68;9.98;;;11.50;37.90;;;;;;5096344;28;20031;-71
2022/03/23 08:32:13;;;;;;;20.02;11.00;;;11.60;37.20;;;;;;5096260;28;20074;-71
2022/03/23 08:34:39;;;;;;;15.27;10.00;;;11.60;36.60;;;;;;5096060;28;20380;-70
2022/03/23 08:37:04;;;;;;;16.45;9.38;;;11.70;36.30;;;;;;5096285;28;20020;-71
2022/03/23 08:39:30;;;;;;;22.42;11.38;;;11.80;36.60;;;;;;5096080;28;20028;-72
2022/03/23 08:41:55;;;;;;;16.08;10.35;;;11.90;36.20;;;;;;5094620;28;20484;-72
2022/03/23 08:44:21;;;;;;;19.40;10.38;;;12.00;34.90;;;;;;5095817;28;20043;-71
2022/03/23 08:46:47;;;;;;;15.80;10.00;;;12.10;34.20;;;;;;5094666;28;20031;-70
2022/03/23 08:49:13;;;;;;;21.77;10.85;;;12.20;33.90;;;;;;5095650;28;20028;-71
2022/03/23 08:51:38;;;;;;;15.43;10.57;;;12.30;33.80;;;;;;5095709;28;20380;-71
2022/03/23 08:54:04;;;;;;;18.25;10.60;;;12.50;33.30;;;;;;5095640;28;20020;-70
2022/03/23 08:56:30;;;;;;;17.63;9.98;;;12.60;33.60;;;;;;5095397;28;20020;-71
2022/03/23 08:58:55;;;;;;;13.70;9.88;;;12.50;32.00;;;;;;5095810;28;20035;-70
2022/03/23 09:01:21;;;;;;;14.90;10.27;;;12.50;31.10;;;;;;5094884;28;20107;-70
2022/03/23 09:03:46;;;;;;;16.00;10.40;;;12.60;30.50;;;;;;5095194;28;20035;-70
2022/03/23 09:06:12;;;;;;;16.92;9.43;;;12.70;30.20;;;;;;5095653;28;20024;-71
2022/03/23 09:08:38;;;;;;;17.10;10.15;;;12.90;30.00;;;;;;5095498;28;20032;-71
2022/03/23 09:11:04;;;;;;;13.68;9.32;;;13.10;29.80;;;;;;5095547;28;20032;-70
2022/03/23 09:13:30;;;;;;;15.15;9.52;;;13.20;29.20;;;;;;5095439;28;20028;-70
2022/03/23 09:15:56;;;;;;;11.57;8.32;;;13.40;27.80;;;;;;5095239;28;20035;-70
2022/03/23 09:18:21;;;;;;;14.02;9.02;;;13.70;27.80;;;;;;5094669;28;20396;-71
2022/03/23 09:20:47;;;;;;;12.95;9.05;;;13.90;28.10;;;;;;5095203;28;20032;-70
2022/03/23 09:23:12;;;;;;;16.70;9.00;;;13.90;27.30;;;;;;5094615;28;20081;-70
2022/03/23 09:25:40;;;;;;;14.15;9.75;;;14.10;26.80;;;;;;5094995;28;20099;-70
2022/03/23 09:28:05;;;;;;;13.25;8.80;;;14.30;26.80;;;;;;5095259;28;20020;-70
2022/03/23 09:30:31;;;;;;;16.27;9.75;;;14.40;25.80;;;;;;5095092;28;20399;-70
2022/03/23 09:32:57;;;;;;;10.40;8.77;;;14.70;25.10;;;;;;5094014;28;20032;-71
2022/03/23 09:35:23;;;;;;;13.98;8.93;;;14.90;24.60;;;;;;5094915;28;20101;-70
2022/03/23 09:37:49;;;;;;;16.77;8.90;;;14.90;23.30;;;;;;5094971;28;20016;-70
2022/03/23 09:40:28;;;;;;;13.10;9.05;;;15.00;22.30;;;;;;5094267;28;20058;-70
2022/03/23 09:42:58;;;;;;;12.70;8.60;;;15.10;22.30;;;;;;5094977;28;20123;-70
2022/03/23 09:47:59;;;;;;;12.95;9.30;;;15.30;22.40;;;;;;5095105;28;20038;-71
2022/03/23 09:50:28;;;;;;;17.95;10.25;;;15.60;22.50;;;;;;5094599;28;20044;-70
2022/03/23 09:52:53;;;;;;;15.52;9.90;;;15.90;23.00;;;;;;5094068;28;20021;-72
2022/03/23 09:55:20;;;;;;;14.90;9.25;;;15.80;22.10;;;;;;5094562;28;20060;-70
2022/03/23 09:57:46;;;;;;;14.45;10.35;;;15.90;21.80;;;;;;5094504;28;20024;-74
2022/03/23 10:00:13;;;;;;;14.55;9.90;;;15.90;21.30;;;;;;5094479;28;20043;-74
2022/03/23 10:02:39;;;;;;;16.13;10.27;;;15.60;20.30;;;;;;5094540;28;20105;-74
2022/03/23 10:05:52;;;;;;;16.08;10.05;;;15.70;20.00;;;;;;5094474;28;20034;-74
2022/03/23 10:08:55;;;;;;;13.05;10.05;;;16.10;20.30;;;;;;5094089;28;20048;-75
2022/03/23 10:11:58;;;;;;;14.93;9.90;;;16.40;20.50;;;;;;5094149;28;20028;-74
2022/03/23 10:14:42;;;;;;;12.80;9.75;;;16.80;20.20;;;;;;5097972;28;20050;-74
2022/03/23 10:17:42;;;;;;;14.93;9.85;;;17.10;20.00;;;;;;5098359;28;20119;-74
2022/03/23 10:20:10;;;;;;;11.30;9.32;;;17.40;19.60;;;;;;5093882;28;20091;-75
2022/03/23 10:22:45;;;;;;;14.07;9.52;;;17.60;19.20;;;;;;5093495;28;20111;-75
2022/03/23 10:25:12;;;;;;;13.43;9.05;;;17.70;19.30;;;;;;5093862;28;20039;-75
2022/03/23 10:27:38;;;;;;;12.02;8.93;;;17.90;19.20;;;;;;5093621;28;20024;-74
2022/03/23 10:30:05;;;;;;;13.00;9.13;;;18.00;18.60;;;;;;5094126;28;20051;-74
2022/03/23 10:32:38;;;;;;;14.57;8.93;;;18.30;18.70;;;;;;5093941;28;20039;-73
2022/03/23 10:35:09;;;;;;;16.25;9.13;;;18.20;17.70;;;;;;5093931;28;20016;-73
2022/03/23 10:37:35;;;;;;;12.65;9.95;;;18.00;16.90;;;;;;5093891;28;20024;-73
2022/03/23 10:40:07;;;;;;;13.75;8.48;;;18.00;17.10;;;;;;5093818;28;20020;-74
2022/03/23 10:42:35;;;;;;;13.63;8.57;;;18.20;18.60;;;;;;5093379;28;20028;-74
2022/03/23 10:45:12;;;;;;;13.25;8.20;;;18.30;18.20;;;;;;5093076;28;20028;-71
2022/03/23 10:47:39;;;;;;;11.63;7.72;;;18.60;17.10;;;;;;5093382;28;20154;-72
2022/03/23 10:50:13;;;;;;;11.52;8.15;;;18.90;17.00;;;;;;5093466;28;20028;-71
2022/03/23 10:53:00;;;;;;;12.13;7.75;;;19.00;16.40;;;;;;5093558;28;20020;-72
2022/03/23 10:55:28;;;;;;;12.00;8.55;;;19.20;15.70;;;;;;5092813;28;20024;-70
2022/03/23 10:58:00;;;;;;;11.40;7.95;;;19.40;15.30;;;;;;5093107;28;20031;-71
2022/03/23 11:00:32;;;;;;;13.18;7.25;;;19.30;14.10;;;;;;5093208;28;20464;-71
2022/03/23 11:02:59;;;;;;;11.98;7.40;;;19.20;14.00;;;;;;5091540;28;20016;-71
2022/03/23 11:05:32;;;;;;;8.75;7.65;;;19.30;14.50;;;;;;5093099;28;20476;-72
2022/03/23 11:08:20;;;;;;;9.45;7.40;;;19.60;14.60;;;;;;5093233;28;20103;-70
2022/03/23 17:15:59;;;;;;;10.43;9.15;;;27.80;4.40;;;;;;4921381;23;22762;-72
2022/03/23 17:18:24;;;;;;;12.50;9.35;;;26.10;5.70;;;;;;4956460;28;20498;-72
2022/03/23 17:20:50;;;;;;;10.82;9.23;;;24.80;6.90;;;;;;4976474;28;20177;-75
2022/03/23 17:23:15;;;;;;;12.98;9.18;;;23.50;8.00;;;;;;4976633;28;20471;-76
2022/03/23 17:25:41;;;;;;;10.77;8.82;;;22.80;8.80;;;;;;4976639;28;20031;-76
2022/03/23 17:28:06;;;;;;;11.73;9.50;;;22.10;9.70;;;;;;4975889;28;20502;-75
2022/03/23 17:30:33;;;;;;;14.02;10.38;;;21.60;10.70;;;;;;4975988;28;20034;-76
2022/03/23 17:32:59;;;;;;;17.45;9.95;;;20.90;11.50;;;;;;4976290;28;20019;-76
2022/03/23 17:35:24;;;;;;;14.10;10.65;;;20.30;12.20;;;;;;4976446;28;20356;-75
2022/03/23 17:37:50;;;;;;;13.43;9.73;;;19.70;12.60;;;;;;4976014;28;20078;-75
2022/03/23 17:40:16;;;;;;;12.45;10.13;;;19.20;13.20;;;;;;4976640;28;20031;-73
2022/03/23 17:42:41;;;;;;;13.98;9.65;;;18.90;13.70;;;;;;4976650;28;20027;-75
2022/03/23 17:45:08;;;;;;;18.95;10.98;;;18.50;14.10;;;;;;4976528;28;20109;-74
2022/03/23 17:47:39;;;;;;;13.38;10.32;;;18.20;14.50;;;;;;4976172;28;20164;-71
2022/03/23 17:50:06;;;;;;;17.75;11.73;;;18.00;15.00;;;;;;4976177;28;20526;-71
2022/03/23 17:52:32;;;;;;;21.63;13.02;;;17.80;15.40;;;;;;4976089;28;20023;-71
2022/03/23 17:54:57;;;;;;;20.27;14.18;;;17.60;15.80;;;;;;4974405;28;20541;-74
2022/03/23 17:57:23;;;;;;;29.23;14.38;;;17.40;16.70;;;;;;4975785;28;20015;-76
2022/03/23 17:59:49;;;;;;;14.98;9.77;;;17.30;16.70;;;;;;4958385;28;20035;-77
2022/03/23 18:02:14;;;;;;;19.15;9.45;;;17.20;18.20;;;;;;4975872;28;20026;-76
2022/03/23 18:04:40;;;;;;;14.60;9.52;;;17.00;19.40;;;;;;4976041;28;20038;-76
2022/03/23 18:07:08;;;;;;;13.15;10.60;;;16.80;21.10;;;;;;4975988;28;20431;-77
2022/03/23 18:09:34;;;;;;;22.58;12.32;;;16.60;22.10;;;;;;4975796;28;20081;-74
2022/03/23 18:12:01;;;;;;;18.77;11.38;;;16.40;23.10;;;;;;4975837;28;20019;-75
2022/03/23 18:14:30;;;;;;;18.05;10.73;;;16.10;24.00;;;;;;4958490;28;20424;-76
2022/03/23 18:16:56;;;;;;;16.98;10.60;;;15.90;24.70;;;;;;4975623;28;20039;-74
2022/03/23 18:19:22;;;;;;;19.05;11.02;;;15.70;25.40;;;;;;4975587;28;20041;-73
2022/03/23 18:21:48;;;;;;;13.25;10.07;;;15.40;26.40;;;;;;4975596;28;20073;-74
2022/03/23 18:24:13;;;;;;;14.23;10.40;;;15.20;27.10;;;;;;4975438;28;20462;-75
2022/03/23 18:26:39;;;;;;;15.10;9.95;;;15.00;27.30;;;;;;4958209;28;20034;-75
2022/03/23 18:29:06;;;;;;;16.83;8.93;;;14.80;27.50;;;;;;4975465;28;20062;-78
2022/03/23 18:31:32;;;;;;;11.52;8.55;;;14.60;30.70;;;;;;4975509;28;20383;-81
2022/03/23 18:33:57;;;;;;;13.23;9.85;;;14.60;36.90;;;;;;4975192;28;20053;-81
2022/03/23 18:36:23;;;;;;;12.90;9.15;;;14.50;33.80;;;;;;4957878;28;20475;-79
2022/03/23 18:38:50;;;;;;;13.65;10.55;;;14.50;34.10;;;;;;4975156;28;20030;-76
2022/03/23 18:41:19;;;;;;;21.83;11.02;;;14.60;33.00;;;;;;4957777;28;20452;-73
2022/03/23 18:43:45;;;;;;;17.02;10.57;;;14.50;31.50;;;;;;4975060;28;20101;-76
2022/03/23 18:46:12;;;;;;;18.45;10.98;;;14.40;32.00;;;;;;4957795;28;20038;-76
2022/03/23 18:48:40;;;;;;;17.17;9.32;;;14.40;31.70;;;;;;4975224;28;20015;-80
2022/03/23 18:51:05;;;;;;;17.33;10.40;;;14.40;31.50;;;;;;4975040;28;20041;-82
2022/03/23 18:53:31;;;;;;;20.67;11.93;;;14.40;31.80;;;;;;4975098;28;20031;-79
2022/03/23 18:55:57;;;;;;;16.27;11.15;;;14.20;30.70;;;;;;4975013;28;20031;-78
2022/03/23 18:58:27;;;;;;;20.42;12.32;;;14.10;30.80;;;;;;4974907;28;20475;-80
2022/03/23 19:00:55;;;;;;;18.63;12.23;;;14.00;30.90;;;;;;4974635;28;20031;-85